Portada
METAR-TAF:

METAR-TAF

Aeropuertos :

Aeropuerto Internacional Rey Abdulaziz

Yida, Arabia Saudita

latitud: 21-42N, longitud: 039-11E, altitud: 15 m

Observación

El informe se hizo hace 52 minutos, a las 02:00 UTC
Viento 8 kt del norte-noroeste
Temperatura 31°C
Humedad 63%
Presión 1003 hPa
Visibilidad 10 km o más
Escasas nubes a una altura de 4000 ft

METAR: OEJN 210200Z 33008KT 9999 FEW040 31/23 Q1003 NOSIG

Hora: 05:52 (02:52 UTC)

Pronóstico

El informe se hizo hace 3 horas y 52 minutos, a las 23:00 UTC
Pronóstico válido del 21 a las 00 UTC al 22 a las 06 UTC
Viento 3 kt con dirección variable
Visibilidad: 7000 m
Nubes dispersas a una altura de 4000 ft
Evolucionando progresivamente
del 21 a las 06 UTC al 21 a las 08 UTC
Viento 10 kt del noroeste con ráfagas de 20 kt
Visibilidad 10 km o más
Escasas nubes a una altura de 4000 ft

TAF: OEJN 202300Z 2100/2206 VRB03KT 7000 SCT040 BECMG 2106/2108 32010G20KT 9999 FEW040

Observaciones y pronósticos meteorológicos de más de 4000 aeropuertos (mensajes METAR y TAF).

Los puntos amarillos y rojos representan las estaciones disponibles.

Ponga el ratón en el punto deseado para ver el nombre de la estación.

Haga clic para ver las observaciones y los pronósticos meteorológicos.

Para cambiar el mapa : haga clic en los botones verdes con una cruz de color negro para hacer un zoom, en el botón verde con un guión para alejar o en las flechas verdes para mapas adyacentes.


METAR-TAF: